createdAt,value
2018-04-26T00:00:48.074Z,10.50
2018-04-26T00:03:15.795Z,10.40
2018-04-26T00:05:43.563Z,10.40
2018-04-26T00:08:11.370Z,10.40
2018-04-26T00:10:39.871Z,10.30
2018-04-26T00:13:07.583Z,10.30
2018-04-26T00:15:35.324Z,10.20
2018-04-26T00:18:03.103Z,10.10
2018-04-26T00:20:30.834Z,10.10
2018-04-26T00:22:58.555Z,10.10
2018-04-26T00:25:27.058Z,10.10
2018-04-26T00:27:54.878Z,10.00
2018-04-26T00:30:22.619Z,10.10
2018-04-26T00:32:50.332Z,10.00
2018-04-26T00:35:18.835Z,9.90
2018-04-26T00:37:46.544Z,9.90
2018-04-26T00:40:14.270Z,9.90
2018-04-26T00:42:41.976Z,9.80
2018-04-26T00:45:09.711Z,9.90
2018-04-26T00:47:37.423Z,9.80
2018-04-26T00:50:05.155Z,9.80
2018-04-26T00:52:32.863Z,9.80
2018-04-26T00:55:01.369Z,9.70
2018-04-26T00:57:29.094Z,9.60
2018-04-26T00:59:57.587Z,9.60
2018-04-26T01:02:26.157Z,9.50
2018-04-26T01:04:53.899Z,9.50
2018-04-26T01:07:21.668Z,9.40
2018-04-26T01:09:49.475Z,9.40
2018-04-26T01:12:17.956Z,9.50
2018-04-26T01:14:46.454Z,9.50
2018-04-26T01:17:14.159Z,9.40
2018-04-26T01:19:41.864Z,9.40
2018-04-26T01:22:10.373Z,9.40
2018-04-26T01:24:38.078Z,9.40
2018-04-26T01:27:05.799Z,9.40
2018-04-26T01:29:33.506Z,9.50
2018-04-26T01:32:01.231Z,9.40
2018-04-26T01:34:28.989Z,9.30
2018-04-26T01:37:02.666Z,9.30
2018-04-26T01:39:31.169Z,9.30
2018-04-26T01:41:58.922Z,9.30
2018-04-26T01:44:26.618Z,9.20
2018-04-26T01:46:54.347Z,9.20
2018-04-26T01:49:22.908Z,9.20
2018-04-26T01:51:50.652Z,9.20
2018-04-26T01:54:18.354Z,9.20
2018-04-26T01:56:46.887Z,9.20
2018-04-26T01:59:14.579Z,9.20
2018-04-26T02:01:42.334Z,9.30
2018-04-26T02:04:10.116Z,9.20
2018-04-26T02:06:37.845Z,9.30
2018-04-26T02:09:05.618Z,9.30
2018-04-26T02:11:33.356Z,9.20
2018-04-26T02:14:01.084Z,9.20
2018-04-26T02:16:28.817Z,9.20
2018-04-26T02:18:56.525Z,9.20
2018-04-26T02:21:25.025Z,9.10
2018-04-26T02:23:53.555Z,9.10
2018-04-26T02:26:21.296Z,9.10
2018-04-26T02:28:48.987Z,9.10
2018-04-26T02:31:16.710Z,9.00
2018-04-26T02:33:44.430Z,9.00
2018-04-26T02:36:12.269Z,8.90
2018-04-26T02:38:39.964Z,8.90
2018-04-26T02:41:07.696Z,8.90
2018-04-26T02:43:35.492Z,8.80
2018-04-26T02:46:03.232Z,8.90
2018-04-26T02:48:30.958Z,8.90
2018-04-26T02:50:58.689Z,9.00
2018-04-26T02:53:26.435Z,8.90
2018-04-26T02:55:54.163Z,8.90
2018-04-26T02:58:21.898Z,9.10
2018-04-26T03:00:50.369Z,9.20
2018-04-26T03:03:18.873Z,9.20
2018-04-26T03:05:46.572Z,9.20
2018-04-26T03:08:14.314Z,9.20
2018-04-26T03:10:42.018Z,9.40
2018-04-26T03:13:09.788Z,9.30
2018-04-26T03:15:37.484Z,9.20
2018-04-26T03:18:05.988Z,9.10
2018-04-26T03:20:33.699Z,9.10
2018-04-26T03:23:02.199Z,9.00
2018-04-26T03:25:29.910Z,9.00
2018-04-26T03:27:57.737Z,8.90
2018-04-26T03:30:26.207Z,9.10
2018-04-26T03:32:53.937Z,9.00
2018-04-26T03:35:21.660Z,9.20
2018-04-26T03:37:50.156Z,9.40
2018-04-26T03:40:17.868Z,9.40
2018-04-26T03:42:45.645Z,9.40
2018-04-26T03:45:13.372Z,9.40
2018-04-26T03:47:41.162Z,9.40
2018-04-26T03:50:08.928Z,9.30
2018-04-26T03:52:36.673Z,9.10
2018-04-26T03:55:04.470Z,9.20
2018-04-26T03:57:32.216Z,9.30
2018-04-26T04:00:05.745Z,9.30
2018-04-26T04:02:40.089Z,9.60
2018-04-26T04:05:13.864Z,9.60
2018-04-26T04:07:42.377Z,9.60
2018-04-26T04:10:10.107Z,9.60
2018-04-26T04:12:37.849Z,9.60
2018-04-26T04:15:05.555Z,9.50
2018-04-26T04:17:34.123Z,9.40
2018-04-26T04:20:02.709Z,9.40
2018-04-26T04:22:30.449Z,9.40
2018-04-26T04:24:58.183Z,9.40
2018-04-26T04:27:25.898Z,9.50
2018-04-26T04:29:53.635Z,9.50
2018-04-26T04:32:21.369Z,9.50
2018-04-26T04:34:49.101Z,9.50
2018-04-26T04:37:17.566Z,9.70
2018-04-26T04:39:45.296Z,9.70
2018-04-26T04:42:13.010Z,9.70
2018-04-26T04:44:41.683Z,9.80
2018-04-26T04:47:09.434Z,9.70
2018-04-26T04:49:37.217Z,9.70
2018-04-26T04:52:04.927Z,9.70
2018-04-26T04:54:32.659Z,9.70
2018-04-26T04:57:01.135Z,9.70
2018-04-26T04:59:29.681Z,9.80
2018-04-26T05:01:57.427Z,9.80
2018-04-26T05:04:25.898Z,9.90
2018-04-26T05:06:53.609Z,9.90
2018-04-26T05:09:21.354Z,10.00
2018-04-26T05:11:49.164Z,10.00
2018-04-26T05:14:16.913Z,10.10
2018-04-26T05:16:45.404Z,10.40
2018-04-26T05:19:13.939Z,10.40
2018-04-26T05:21:41.646Z,10.40
2018-04-26T05:24:10.155Z,10.50
2018-04-26T05:26:37.902Z,10.50
2018-04-26T05:29:06.411Z,10.50
2018-04-26T05:31:34.241Z,10.50
2018-04-26T05:34:02.014Z,10.30
2018-04-26T05:36:30.663Z,10.00
2018-04-26T05:38:58.384Z,10.00
2018-04-26T05:41:26.091Z,9.80
2018-04-26T05:43:53.838Z,9.70
2018-04-26T05:46:21.543Z,9.80
2018-04-26T05:48:49.286Z,9.80
2018-04-26T05:51:17.013Z,10.00
2018-04-26T05:53:44.749Z,10.00
2018-04-26T05:56:13.227Z,10.00
2018-04-26T05:58:40.984Z,10.00
2018-04-26T06:01:08.744Z,10.10
2018-04-26T06:03:36.674Z,10.20
2018-04-26T06:06:04.286Z,10.40
2018-04-26T06:08:32.763Z,10.50
2018-04-26T06:11:00.510Z,10.50
2018-04-26T06:13:28.243Z,10.60
2018-04-26T06:15:55.999Z,10.70
2018-04-26T06:18:23.723Z,10.80
2018-04-26T06:20:51.457Z,10.80
2018-04-26T06:23:19.168Z,10.80
2018-04-26T06:25:47.695Z,10.70
2018-04-26T06:28:15.496Z,10.80
2018-04-26T06:30:43.245Z,10.70
2018-04-26T06:33:11.667Z,10.70
2018-04-26T06:35:40.176Z,10.90
2018-04-26T06:38:07.899Z,10.90
2018-04-26T06:40:36.598Z,11.20
2018-04-26T06:43:05.077Z,11.20
2018-04-26T06:45:33.586Z,11.30
2018-04-26T06:48:01.427Z,11.30
2018-04-26T06:50:29.939Z,11.40
2018-04-26T06:52:57.751Z,11.30
2018-04-26T06:55:25.521Z,11.40
2018-04-26T06:57:53.234Z,11.30
2018-04-26T07:00:21.021Z,11.10
2018-04-26T07:02:48.819Z,11.20
2018-04-26T07:05:16.575Z,11.20
2018-04-26T07:07:44.293Z,11.20
2018-04-26T07:10:12.026Z,11.20
2018-04-26T07:12:40.507Z,11.20
2018-04-26T07:15:09.019Z,11.20
2018-04-26T07:17:36.727Z,11.20
2018-04-26T07:20:04.511Z,11.20
2018-04-26T07:22:32.241Z,11.10
2018-04-26T07:24:59.979Z,11.00
2018-04-26T07:27:27.698Z,10.90
2018-04-26T07:29:55.411Z,10.80
2018-04-26T07:32:23.144Z,10.70
2018-04-26T07:34:51.820Z,10.50
2018-04-26T07:37:19.517Z,10.50
2018-04-26T07:39:47.243Z,10.50
2018-04-26T07:42:14.990Z,10.70
2018-04-26T07:44:42.782Z,10.70
2018-04-26T07:47:11.333Z,10.90
2018-04-26T07:49:39.115Z,10.90
2018-04-26T07:52:06.867Z,11.00
2018-04-26T07:54:34.584Z,11.30
2018-04-26T07:57:02.318Z,11.40
2018-04-26T07:59:30.804Z,11.90
2018-04-26T08:01:59.313Z,12.10
2018-04-26T08:04:27.930Z,12.10
2018-04-26T08:06:55.806Z,12.30
2018-04-26T08:09:23.539Z,12.30
2018-04-26T08:11:51.288Z,12.40
2018-04-26T08:14:19.841Z,12.70
2018-04-26T08:16:47.574Z,12.70
2018-04-26T08:19:15.372Z,12.90
2018-04-26T08:21:43.143Z,12.80
2018-04-26T08:24:11.624Z,13.00
2018-04-26T08:32:10.484Z,13.20
2018-04-26T08:34:38.168Z,13.50
2018-04-26T08:37:05.842Z,13.40
2018-04-26T08:39:33.496Z,13.20
2018-04-26T08:42:01.240Z,12.80
2018-04-26T08:44:28.897Z,12.40
2018-04-26T08:46:56.579Z,11.60
2018-04-26T08:49:24.240Z,10.80
2018-04-26T08:51:51.918Z,10.20
2018-04-26T08:54:19.662Z,9.90
2018-04-26T08:56:47.418Z,9.60
2018-04-26T08:59:15.684Z,9.40
2018-04-26T09:01:43.360Z,9.30
2018-04-26T09:04:11.010Z,9.30
2018-04-26T09:06:38.725Z,9.20
2018-04-26T09:09:06.349Z,9.20
2018-04-26T09:11:34.020Z,9.30
2018-04-26T09:14:01.775Z,9.50
2018-04-26T09:16:29.540Z,9.60
2018-04-26T09:18:57.208Z,9.60
2018-04-26T09:21:24.868Z,9.40
2018-04-26T09:23:52.538Z,9.10
2018-04-26T09:26:20.188Z,8.90
2018-04-26T09:28:47.856Z,8.80
2018-04-26T09:31:15.508Z,8.60
2018-04-26T09:33:43.186Z,8.20
2018-04-26T09:36:10.942Z,7.90
2018-04-26T09:38:38.657Z,7.70
2018-04-26T09:41:06.284Z,7.50
2018-04-26T09:43:33.951Z,7.50
2018-04-26T09:46:01.612Z,7.50
2018-04-26T09:48:29.358Z,7.70
2018-04-26T09:50:57.003Z,7.90
2018-04-26T09:53:24.685Z,8.00
2018-04-26T09:55:52.343Z,8.30
2018-04-26T09:58:20.103Z,8.40
2018-04-26T10:00:53.033Z,8.40
2018-04-26T10:03:20.696Z,8.40
2018-04-26T10:05:54.195Z,8.50
2018-04-26T10:08:21.929Z,8.60
2018-04-26T10:10:49.594Z,8.90
2018-04-26T10:13:17.264Z,8.90
2018-04-26T10:15:45.017Z,9.10
2018-04-26T10:18:12.683Z,9.30
2018-04-26T10:20:40.345Z,9.60
2018-04-26T10:23:08.004Z,9.80
2018-04-26T10:25:35.656Z,10.10
2018-04-26T10:28:03.427Z,10.40
2018-04-26T10:30:31.087Z,10.60
2018-04-26T10:32:58.763Z,10.70
2018-04-26T10:35:26.427Z,10.80
2018-04-26T10:37:54.104Z,10.90
2018-04-26T10:40:21.841Z,10.90
2018-04-26T10:42:49.520Z,11.30
2018-04-26T10:45:17.175Z,11.50
2018-04-26T10:47:45.453Z,11.60
2018-04-26T10:50:13.115Z,11.60
2018-04-26T10:52:40.791Z,11.50
2018-04-26T10:55:08.463Z,11.20
2018-04-26T10:57:36.136Z,11.20
2018-04-26T11:00:03.856Z,11.20
2018-04-26T11:02:31.505Z,11.00
2018-04-26T11:04:59.282Z,11.00
2018-04-26T11:07:26.936Z,11.30
2018-04-26T11:09:54.683Z,11.40
2018-04-26T11:12:22.340Z,11.80
2018-04-26T11:14:50.026Z,12.10
2018-04-26T11:17:17.778Z,12.50
2018-04-26T11:19:45.446Z,12.90
2018-04-26T11:22:13.113Z,13.10
2018-04-26T11:24:40.820Z,12.90
2018-04-26T11:27:08.576Z,12.90
2018-04-26T11:29:36.191Z,12.80
2018-04-26T11:32:03.860Z,12.90
2018-04-26T11:34:31.541Z,13.10
2018-04-26T11:36:59.200Z,13.30
2018-04-26T11:39:26.995Z,13.30
2018-04-26T11:41:54.712Z,13.20
2018-04-26T11:44:22.382Z,13.00
2018-04-26T11:46:50.149Z,12.90
2018-04-26T11:49:17.912Z,13.10
2018-04-26T11:51:45.696Z,13.10
2018-04-26T11:54:13.382Z,13.10
2018-04-26T11:56:41.037Z,13.20
2018-04-26T11:59:08.708Z,13.00
2018-04-26T12:01:36.376Z,13.10
2018-04-26T12:04:04.049Z,13.30
2018-04-26T12:06:31.718Z,13.70
2018-04-26T12:09:00.225Z,14.20
2018-04-26T12:11:27.900Z,14.10
2018-04-26T12:13:55.664Z,14.00
2018-04-26T12:16:23.437Z,13.80
2018-04-26T12:18:51.085Z,13.50
2018-04-26T12:21:18.776Z,13.10
2018-04-26T12:23:46.436Z,12.70
2018-04-26T12:26:14.128Z,12.30
2018-04-26T12:28:41.784Z,12.00
2018-04-26T12:31:10.964Z,15.20
2018-04-26T12:33:38.641Z,15.20
2018-04-26T12:36:06.410Z,17.70
2018-04-26T12:38:34.039Z,17.10
2018-04-26T12:41:01.716Z,16.70
2018-04-26T12:43:29.380Z,16.10
2018-04-26T12:45:57.052Z,17.20
2018-04-26T12:48:24.794Z,17.40
2018-04-26T12:50:52.457Z,17.20
2018-04-26T12:53:20.119Z,17.20
2018-04-26T12:55:47.874Z,16.40
2018-04-26T12:58:15.558Z,15.80
2018-04-26T13:00:43.212Z,15.00
2018-04-26T13:03:10.955Z,14.60
2018-04-26T13:05:38.640Z,14.10
2018-04-26T13:08:06.388Z,13.60
2018-04-26T13:10:34.066Z,13.10
2018-04-26T13:13:01.830Z,12.30
2018-04-26T13:15:29.584Z,11.40
2018-04-26T13:17:57.253Z,10.50
2018-04-26T13:20:24.924Z,9.70
2018-04-26T13:22:52.667Z,9.40
2018-04-26T13:25:20.374Z,9.30
2018-04-26T13:27:48.005Z,9.20
2018-04-26T13:30:15.667Z,9.50
2018-04-26T13:32:43.330Z,11.90
2018-04-26T13:35:11.009Z,14.80
2018-04-26T13:37:38.758Z,17.70
2018-04-26T13:40:06.417Z,20.20
2018-04-26T13:42:34.076Z,21.60
2018-04-26T13:45:01.790Z,21.80
2018-04-26T13:47:29.507Z,22.00
2018-04-26T13:49:57.266Z,22.30
2018-04-26T13:52:24.944Z,22.90
2018-04-26T13:54:52.618Z,23.20
2018-04-26T13:57:20.355Z,23.00
2018-04-26T13:59:48.017Z,22.60
2018-04-26T14:02:15.715Z,23.90
2018-04-26T14:04:43.388Z,23.80
2018-04-26T14:07:11.047Z,24.10
2018-04-26T14:09:38.725Z,24.10
2018-04-26T14:12:06.535Z,24.50
2018-04-26T14:14:34.099Z,24.10
2018-04-26T14:17:01.863Z,23.40
2018-04-26T14:19:29.521Z,23.80
2018-04-26T14:21:57.191Z,24.40
2018-04-26T14:24:24.956Z,24.50
2018-04-26T14:26:52.632Z,25.40
2018-04-26T14:29:20.346Z,25.30
2018-04-26T14:31:47.968Z,25.40
2018-04-26T14:34:15.627Z,24.00
2018-04-26T14:36:43.305Z,23.10
2018-04-26T14:39:10.965Z,22.20
2018-04-26T14:41:38.639Z,21.80
2018-04-26T14:44:06.363Z,20.90
2018-04-26T14:46:34.049Z,19.80
2018-04-26T14:49:01.711Z,18.80
2018-04-26T14:51:29.453Z,18.20
2018-04-26T14:53:57.141Z,17.80
2018-04-26T14:56:24.819Z,17.50
2018-04-26T14:58:52.486Z,17.00
2018-04-26T15:01:20.180Z,16.30
2018-04-26T15:03:48.608Z,14.30
2018-04-26T15:06:16.307Z,14.20
2018-04-26T15:09:56.027Z,11.40
2018-04-26T15:12:31.259Z,11.40
2018-04-26T15:14:59.518Z,10.50
2018-04-26T15:17:27.779Z,10.00
2018-04-26T15:19:56.996Z,9.60
2018-04-26T15:22:25.456Z,9.60
2018-04-26T15:24:54.659Z,9.60
2018-04-26T15:27:23.895Z,9.60
2018-04-26T15:29:52.374Z,9.60
2018-04-26T15:32:21.446Z,10.10
2018-04-26T15:34:50.855Z,11.20
2018-04-26T15:37:19.322Z,11.20
2018-04-26T15:39:48.551Z,14.10
2018-04-26T15:42:17.028Z,14.10
2018-04-26T15:44:45.467Z,14.80
2018-04-26T15:47:14.703Z,16.00
2018-04-26T15:49:43.155Z,16.00
2018-04-26T15:52:12.056Z,14.60
2018-04-26T15:54:55.903Z,14.70
2018-04-26T16:00:34.452Z,16.40
2018-04-26T16:03:08.186Z,16.40
2018-04-26T16:05:41.778Z,17.70
2018-04-26T16:08:21.291Z,18.30
2018-04-26T16:11:00.645Z,18.70
2018-04-26T16:13:40.201Z,19.10
2018-04-26T16:16:13.599Z,19.00
2018-04-26T16:18:47.730Z,19.80
2018-04-26T16:21:27.169Z,19.50
2018-04-26T16:24:03.846Z,19.20
2018-04-26T16:29:37.312Z,19.90
2018-04-26T16:32:16.671Z,19.50
2018-04-26T16:34:50.388Z,19.50
2018-04-26T16:37:29.848Z,19.70
2018-04-26T16:39:57.479Z,19.70
2018-04-26T16:42:25.164Z,18.30
2018-04-26T16:44:52.807Z,17.80
2018-04-26T16:47:20.500Z,17.40
2018-04-26T16:49:48.172Z,17.30
2018-04-26T16:52:16.609Z,15.20
2018-04-26T16:54:44.371Z,15.10
2018-04-26T16:57:12.039Z,14.40
2018-04-26T16:59:39.721Z,13.80
2018-04-26T17:02:07.452Z,13.20
2018-04-26T17:04:35.213Z,13.40
2018-04-26T17:07:02.895Z,13.70
2018-04-26T17:09:30.474Z,14.10
2018-04-26T17:11:58.141Z,14.30
2018-04-26T17:14:25.899Z,14.70
2018-04-26T17:16:53.625Z,14.50
2018-04-26T17:19:21.227Z,14.30
2018-04-26T17:21:48.967Z,14.40
2018-04-26T17:24:16.635Z,15.00
2018-04-26T17:26:44.312Z,15.50
2018-04-26T17:29:12.756Z,15.60
2018-04-26T17:31:40.413Z,15.60
2018-04-26T17:34:08.863Z,15.10
2018-04-26T17:36:36.523Z,15.10
2018-04-26T17:39:04.221Z,14.50
2018-04-26T17:41:32.048Z,13.90
2018-04-26T17:44:00.152Z,13.40
2018-04-26T17:46:28.659Z,12.70
2018-04-26T17:48:56.385Z,12.70
2018-04-26T17:51:25.020Z,12.10
2018-04-26T17:53:52.703Z,12.10
2018-04-26T17:56:20.359Z,11.90
2018-04-26T17:58:48.031Z,11.70
2018-04-26T18:01:15.761Z,11.50
2018-04-26T18:03:43.435Z,11.40
2018-04-26T18:06:11.087Z,11.30
2018-04-26T18:08:38.761Z,11.10
2018-04-26T18:11:06.433Z,11.00
2018-04-26T18:13:34.128Z,11.00
2018-04-26T18:16:01.881Z,10.90
2018-04-26T18:18:29.757Z,10.80
2018-04-26T18:20:57.477Z,10.70
2018-04-26T18:23:25.181Z,10.60
2018-04-26T18:25:52.901Z,10.60
2018-04-26T18:28:20.563Z,10.50
2018-04-26T18:30:48.254Z,10.50
2018-04-26T18:33:16.069Z,10.50
2018-04-26T18:35:44.673Z,10.40
2018-04-26T18:38:12.358Z,10.40
2018-04-26T18:40:40.074Z,10.40
2018-04-26T18:43:09.862Z,10.30
2018-04-26T18:45:36.361Z,10.30
2018-04-26T18:48:04.855Z,10.20
2018-04-26T18:50:32.635Z,10.20
2018-04-26T18:53:00.341Z,10.20
2018-04-26T18:55:29.102Z,10.10
2018-04-26T18:57:56.773Z,10.10
2018-04-26T19:00:24.452Z,10.10
2018-04-26T19:02:52.972Z,10.00
2018-04-26T19:05:21.472Z,10.00
2018-04-26T19:07:49.216Z,9.90
2018-04-26T19:10:16.884Z,9.90
2018-04-26T19:12:44.539Z,9.90
2018-04-26T19:15:12.204Z,9.80
2018-04-26T19:17:39.863Z,9.80
2018-04-26T19:20:07.539Z,9.80
2018-04-26T19:22:35.197Z,9.80
2018-04-26T19:25:02.958Z,9.80
2018-04-26T19:27:30.624Z,9.80
2018-04-26T19:29:58.418Z,9.70
2018-04-26T19:32:26.180Z,9.70
2018-04-26T19:34:53.869Z,9.50
2018-04-26T19:37:21.520Z,9.50
2018-04-26T19:39:49.244Z,9.50
2018-04-26T19:42:16.904Z,9.40
2018-04-26T19:44:44.564Z,9.40
2018-04-26T19:47:12.235Z,9.40
2018-04-26T19:49:39.901Z,9.40
2018-04-26T19:52:07.942Z,9.40
2018-04-26T19:54:36.445Z,9.30
2018-04-26T19:57:04.116Z,9.30
2018-04-26T19:59:31.863Z,9.30
2018-04-26T20:01:59.585Z,9.20
2018-04-26T20:04:27.203Z,9.20
2018-04-26T20:06:54.896Z,9.20
2018-04-26T20:09:22.548Z,9.20
2018-04-26T20:11:50.631Z,9.10
2018-04-26T20:14:18.373Z,9.10
2018-04-26T20:16:46.124Z,9.00
2018-04-26T20:19:13.771Z,9.00
2018-04-26T20:21:41.447Z,9.00
2018-04-26T20:24:09.228Z,9.00
2018-04-26T20:26:36.884Z,8.90
2018-04-26T20:29:04.545Z,8.90
2018-04-26T20:31:32.631Z,9.00
2018-04-26T20:34:00.829Z,9.00
2018-04-26T20:36:28.550Z,8.90
2018-04-26T20:38:56.193Z,8.90
2018-04-26T20:41:24.648Z,8.90
2018-04-26T20:43:52.357Z,8.90
2018-04-26T20:46:20.024Z,9.00
2018-04-26T20:48:47.772Z,9.00
2018-04-26T20:51:15.452Z,9.00
2018-04-26T20:53:43.100Z,9.00
2018-04-26T20:56:11.608Z,9.10
2018-04-26T20:58:39.284Z,9.10
2018-04-26T21:01:07.736Z,9.10
2018-04-26T21:03:35.460Z,9.10
2018-04-26T21:06:03.159Z,9.20
2018-04-26T21:08:30.817Z,9.20
2018-04-26T21:10:58.509Z,9.20
2018-04-26T21:13:26.151Z,9.20
2018-04-26T21:15:53.911Z,9.30
2018-04-26T21:18:21.562Z,9.40
2018-04-26T21:20:50.572Z,9.40
2018-04-26T21:23:18.262Z,9.30
2018-04-26T21:25:46.660Z,9.30
2018-04-26T21:28:14.332Z,9.20
2018-04-26T21:30:42.040Z,9.20
2018-04-26T21:33:09.807Z,9.30
2018-04-26T21:35:37.486Z,9.40
2018-04-26T21:38:05.178Z,9.50
2018-04-26T21:40:32.787Z,9.50
2018-04-26T21:43:00.448Z,9.50
2018-04-26T21:45:28.132Z,9.40
2018-04-26T21:47:55.804Z,9.30
2018-04-26T21:50:29.335Z,9.30
2018-04-26T21:53:02.687Z,9.30
2018-04-26T21:55:36.748Z,9.40
2018-04-26T21:58:10.290Z,9.30
2018-04-26T22:00:43.822Z,9.20
2018-04-26T22:03:11.480Z,9.10
2018-04-26T22:05:39.144Z,9.00
2018-04-26T22:08:06.811Z,9.00
2018-04-26T22:10:34.470Z,8.90
2018-04-26T22:13:02.211Z,8.90
2018-04-26T22:15:30.692Z,8.80
2018-04-26T22:17:58.360Z,8.80
2018-04-26T22:20:26.026Z,8.80
2018-04-26T22:22:53.698Z,8.80
2018-04-26T22:25:21.347Z,8.70
2018-04-26T22:27:49.026Z,8.80
2018-04-26T22:30:16.681Z,8.70
2018-04-26T22:32:44.339Z,8.80
2018-04-26T22:35:11.997Z,8.70
2018-04-26T22:37:39.678Z,8.70
2018-04-26T22:40:07.319Z,8.60
2018-04-26T22:42:34.986Z,8.70
2018-04-26T22:45:02.635Z,8.60
2018-04-26T22:47:30.323Z,8.60
2018-04-26T22:49:57.980Z,8.60
2018-04-26T22:52:25.838Z,8.60
2018-04-26T22:54:53.518Z,8.60
2018-04-26T22:57:21.192Z,8.60
2018-04-26T22:59:48.846Z,8.70
2018-04-26T23:02:16.591Z,8.90
2018-04-26T23:04:44.360Z,8.90
2018-04-26T23:07:12.050Z,8.80
2018-04-26T23:09:39.788Z,8.80
2018-04-26T23:12:07.449Z,8.90
2018-04-26T23:14:35.108Z,8.90
2018-04-26T23:17:02.762Z,8.90
2018-04-26T23:19:30.445Z,8.90
2018-04-26T23:21:58.101Z,8.80
2018-04-26T23:24:25.897Z,8.80
2018-04-26T23:26:53.581Z,8.80
2018-04-26T23:29:21.250Z,8.90
2018-04-26T23:31:48.911Z,9.00
2018-04-26T23:34:16.569Z,9.10
2018-04-26T23:36:44.230Z,9.20
2018-04-26T23:39:11.961Z,9.30
2018-04-26T23:41:39.617Z,9.20
2018-04-26T23:44:07.283Z,9.20
2018-04-26T23:46:34.991Z,9.20
2018-04-26T23:49:02.690Z,9.20
2018-04-26T23:51:30.365Z,9.30
2018-04-26T23:53:58.128Z,9.30
2018-04-26T23:56:25.799Z,9.30
2018-04-26T23:58:53.483Z,9.20
